John D. Leitch — VGWM — position and weather

sailwx.info

Track history (hours):
 
Tides and Currents Weather Stations Pressure Air Temp Water Temp Dewpoint Dewpoint Depression Visibility Wind Speed Wind Dir Waves Ship Positions

John D. Leitch

ex Canadian Century

Last reported at 2017-Sep-24 01:38 UTC. Time now 2017-Sep-24 08:38 UTC.
Position N 46°52' W 091°39'.

Length 222 m; draft 6.8 m.

Type: Cargo ship. MMSI: 316001701.

Date/timePositionNaut miles runAvg speedWind from/ knotsBaromVisibWave heightAir tempDewpointWater temp
2017-Sep-24 01:38N 46°52' W 091°39'111.2
2017-Sep-24 01:30N 46°51' W 091°41'611.1
2017-Sep-24 01:00N 46°48' W 091°48'611.3
2017-Sep-24 00:30N 46°45' W 091°55'5 9.8
2017-Sep-24 00:00N 46°42' W 092°01'1 1.1
2017-Sep-23 23:30N 46°42' W 092°01'0 0.0
2017-Sep-23 23:00N 46°42' W 092°01'0 0.0
2017-Sep-23 22:30N 46°42' W 092°01'0 0.0
2017-Sep-23 22:00N 46°42' W 092°01'0 0.0
2017-Sep-23 21:30N 46°42' W 092°01'0 0.0
2017-Sep-23 21:00N 46°42' W 092°01'0 0.0
2017-Sep-23 20:30N 46°42' W 092°01'0 0.0
2017-Sep-23 20:00N 46°42' W 092°01'4 0.1
2017-Sep-22 02:00N 46°46' W 092°02'0 0.1
2017-Sep-22 01:30N 46°46' W 092°02'0 0.0
2017-Sep-22 01:00N 46°46' W 092°02'0 0.1
2017-Sep-22 00:30N 46°46' W 092°02'0 0.2
2017-Sep-22 00:00N 46°46' W 092°02'0 0.1
2017-Sep-21 23:30N 46°46' W 092°02'0 0.1
2017-Sep-21 23:00N 46°46' W 092°02'0 0.1
2017-Sep-21 22:30N 46°46' W 092°02'0 0.2
2017-Sep-21 22:00N 46°46' W 092°02'0 0.2
2017-Sep-21 21:30N 46°46' W 092°02'0 0.1
2017-Sep-21 21:00N 46°46' W 092°02'0 0.0
2017-Sep-21 20:30N 46°46' W 092°02'0 0.1
2017-Sep-21 20:00N 46°46' W 092°02'0 0.1
2017-Sep-21 19:30N 46°46' W 092°02'0 0.0
2017-Sep-21 19:00N 46°46' W 092°02'0 0.1
2017-Sep-21 18:30N 46°46' W 092°02'0 0.0
2017-Sep-21 18:00N 46°46' W 092°02'0 0.0
2017-Sep-21 17:30N 46°46' W 092°02'0 0.0
2017-Sep-21 17:00N 46°46' W 092°02'0 0.0
2017-Sep-21 16:30N 46°46' W 092°02'0 0.0
2017-Sep-21 16:00N 46°46' W 092°02'0 0.4
2017-Sep-21 15:30N 46°46' W 092°02'2 4.7
2017-Sep-21 15:00N 46°46' W 092°06'0 0.7
2017-Sep-21 14:30N 46°45' W 092°06'0 0.0
2017-Sep-21 14:00N 46°45' W 092°06'0 0.0
2017-Sep-21 13:30N 46°45' W 092°06'0 0.0
2017-Sep-21 13:00N 46°45' W 092°06'0 0.0
2017-Sep-21 12:30N 46°45' W 092°06'1 1.2
2017-Sep-21 12:00N 46°46' W 092°06'2 4.0
2017-Sep-21 11:30N 46°47' W 092°04'611.6
2017-Sep-21 11:00N 46°49' W 091°56'612.1
2017-Sep-21 10:30N 46°52' W 091°48'612.2
2017-Sep-21 10:00N 46°54' W 091°39'611.9
2017-Sep-21 09:30N 46°56' W 091°31'611.8
2017-Sep-21 09:00N 46°58' W 091°23'611.8
2017-Sep-21 08:30N 47°01' W 091°15'21911.5
2017-Sep-20 13:28N 47°02' W 085°54'88 7.7
2017-Sep-20 01:59N 46°15' W 084°06'13 9.1
2017-Sep-20 00:33N 46°03' W 083°58'111.6
2017-Sep-20 00:29N 46°03' W 083°57'5 9.6
2017-Sep-19 23:58N 45°59' W 083°53'510.0
2017-Sep-19 23:30N 45°55' W 083°58'611.9
2017-Sep-19 23:00N 45°53' W 084°06'611.8
2017-Sep-19 22:29N 45°52' W 084°14'611.8
2017-Sep-19 22:00N 45°51' W 084°22'611.7
2017-Sep-19 21:30N 45°51' W 084°31'611.2
2017-Sep-19 21:00N 45°50' W 084°39'510.7
2017-Sep-19 20:30N 45°49' W 084°46'511.0
2017-Sep-19 20:00N 45°49' W 084°54'611.2
2017-Sep-19 19:30N 45°50' W 085°02'5 9.5
2017-Sep-19 19:00N 45°48' W 085°09'5 9.4
2017-Sep-19 18:30N 45°44' W 085°11'612.0
2017-Sep-19 18:00N 45°39' W 085°16'612.1
2017-Sep-19 17:30N 45°34' W 085°21'612.0
2017-Sep-19 17:00N 45°29' W 085°26'612.0
2017-Sep-19 16:30N 45°25' W 085°31'612.1
2017-Sep-19 16:00N 45°20' W 085°36'612.1
2017-Sep-19 15:30N 45°15' W 085°42'612.0
2017-Sep-19 15:00N 45°10' W 085°47'  
2017-Sep-16 17:28N 45°46' W 085°54'510.6
2017-Sep-16 17:00N 45°48' W 085°48'1110.6
2017-Sep-16 16:00N 45°53' W 085°35'510.2
2017-Sep-16 15:30N 45°53' W 085°28'511.0
2017-Sep-16 15:00N 45°53' W 085°20'611.1
2017-Sep-16 14:30N 45°52' W 085°12'611.2
2017-Sep-16 14:00N 45°51' W 085°04'611.2
2017-Sep-16 13:30N 45°50' W 084°56'611.4
2017-Sep-16 13:00N 45°49' W 084°48'611.1
2017-Sep-16 12:30N 45°48' W 084°40'611.2
2017-Sep-16 12:00N 45°45' W 084°34'511.0
2017-Sep-16 11:30N 45°42' W 084°27'510.6
2017-Sep-16 11:00N 45°41' W 084°19'510.5
2017-Sep-16 10:29N 45°39' W 084°12'611.5
2017-Sep-16 10:00N 45°37' W 084°05'611.5
2017-Sep-16 09:30N 45°35' W 083°57'611.4
2017-Sep-16 09:00N 45°32' W 083°50'611.3
2017-Sep-16 08:30N 45°30' W 083°43'611.3
2017-Sep-16 08:00N 45°27' W 083°35'611.4
2017-Sep-16 07:30N 45°25' W 083°28'611.3
2017-Sep-16 07:00N 45°22' W 083°22'  
Track history (hours):
 
Tides and Currents Weather Stations Pressure Air Temp Water Temp Dewpoint Dewpoint Depression Visibility Wind Speed Wind Dir Waves Ship Positions

John D. Leitch

ex Canadian Century

Last reported at 2017-Sep-24 01:38 UTC. Time now 2017-Sep-24 08:38 UTC.
Position N 46°52' W 091°39'.

Length 222 m; draft 6.8 m.

Type: Cargo ship. MMSI: 316001701.

Date/timePositionNaut miles runAvg speedWind from/ knotsBaromVisibWave heightAir tempDewpointWater temp
2017-Sep-24 01:38N 46°52' W 091°39'111.2
2017-Sep-24 01:30N 46°51' W 091°41'611.1
2017-Sep-24 01:00N 46°48' W 091°48'611.3
2017-Sep-24 00:30N 46°45' W 091°55'5 9.8
2017-Sep-24 00:00N 46°42' W 092°01'1 1.1
2017-Sep-23 23:30N 46°42' W 092°01'0 0.0
2017-Sep-23 23:00N 46°42' W 092°01'0 0.0
2017-Sep-23 22:30N 46°42' W 092°01'0 0.0
2017-Sep-23 22:00N 46°42' W 092°01'0 0.0
2017-Sep-23 21:30N 46°42' W 092°01'0 0.0
2017-Sep-23 21:00N 46°42' W 092°01'0 0.0
2017-Sep-23 20:30N 46°42' W 092°01'0 0.0
2017-Sep-23 20:00N 46°42' W 092°01'4 0.1
2017-Sep-22 02:00N 46°46' W 092°02'0 0.1
2017-Sep-22 01:30N 46°46' W 092°02'0 0.0
2017-Sep-22 01:00N 46°46' W 092°02'0 0.1
2017-Sep-22 00:30N 46°46' W 092°02'0 0.2
2017-Sep-22 00:00N 46°46' W 092°02'0 0.1
2017-Sep-21 23:30N 46°46' W 092°02'0 0.1
2017-Sep-21 23:00N 46°46' W 092°02'0 0.1
2017-Sep-21 22:30N 46°46' W 092°02'0 0.2
2017-Sep-21 22:00N 46°46' W 092°02'0 0.2
2017-Sep-21 21:30N 46°46' W 092°02'0 0.1
2017-Sep-21 21:00N 46°46' W 092°02'0 0.0
2017-Sep-21 20:30N 46°46' W 092°02'0 0.1
2017-Sep-21 20:00N 46°46' W 092°02'0 0.1
2017-Sep-21 19:30N 46°46' W 092°02'0 0.0
2017-Sep-21 19:00N 46°46' W 092°02'0 0.1
2017-Sep-21 18:30N 46°46' W 092°02'0 0.0
2017-Sep-21 18:00N 46°46' W 092°02'0 0.0
2017-Sep-21 17:30N 46°46' W 092°02'0 0.0
2017-Sep-21 17:00N 46°46' W 092°02'0 0.0
2017-Sep-21 16:30N 46°46' W 092°02'0 0.0
2017-Sep-21 16:00N 46°46' W 092°02'0 0.4
2017-Sep-21 15:30N 46°46' W 092°02'2 4.7
2017-Sep-21 15:00N 46°46' W 092°06'0 0.7
2017-Sep-21 14:30N 46°45' W 092°06'0 0.0
2017-Sep-21 14:00N 46°45' W 092°06'0 0.0
2017-Sep-21 13:30N 46°45' W 092°06'0 0.0
2017-Sep-21 13:00N 46°45' W 092°06'0 0.0
2017-Sep-21 12:30N 46°45' W 092°06'1 1.2
2017-Sep-21 12:00N 46°46' W 092°06'2 4.0
2017-Sep-21 11:30N 46°47' W 092°04'611.6
2017-Sep-21 11:00N 46°49' W 091°56'612.1
2017-Sep-21 10:30N 46°52' W 091°48'612.2
2017-Sep-21 10:00N 46°54' W 091°39'611.9
2017-Sep-21 09:30N 46°56' W 091°31'611.8
2017-Sep-21 09:00N 46°58' W 091°23'611.8
2017-Sep-21 08:30N 47°01' W 091°15'21911.5
2017-Sep-20 13:28N 47°02' W 085°54'88 7.7
2017-Sep-20 01:59N 46°15' W 084°06'13 9.1
2017-Sep-20 00:33N 46°03' W 083°58'111.6
2017-Sep-20 00:29N 46°03' W 083°57'5 9.6
2017-Sep-19 23:58N 45°59' W 083°53'510.0
2017-Sep-19 23:30N 45°55' W 083°58'611.9
2017-Sep-19 23:00N 45°53' W 084°06'611.8
2017-Sep-19 22:29N 45°52' W 084°14'611.8
2017-Sep-19 22:00N 45°51' W 084°22'611.7
2017-Sep-19 21:30N 45°51' W 084°31'611.2
2017-Sep-19 21:00N 45°50' W 084°39'510.7
2017-Sep-19 20:30N 45°49' W 084°46'511.0
2017-Sep-19 20:00N 45°49' W 084°54'611.2
2017-Sep-19 19:30N 45°50' W 085°02'5 9.5
2017-Sep-19 19:00N 45°48' W 085°09'5 9.4
2017-Sep-19 18:30N 45°44' W 085°11'612.0
2017-Sep-19 18:00N 45°39' W 085°16'612.1
2017-Sep-19 17:30N 45°34' W 085°21'612.0
2017-Sep-19 17:00N 45°29' W 085°26'612.0
2017-Sep-19 16:30N 45°25' W 085°31'612.1
2017-Sep-19 16:00N 45°20' W 085°36'612.1
2017-Sep-19 15:30N 45°15' W 085°42'612.0
2017-Sep-19 15:00N 45°10' W 085°47'  
2017-Sep-16 17:28N 45°46' W 085°54'510.6
2017-Sep-16 17:00N 45°48' W 085°48'1110.6
2017-Sep-16 16:00N 45°53' W 085°35'510.2
2017-Sep-16 15:30N 45°53' W 085°28'511.0
2017-Sep-16 15:00N 45°53' W 085°20'611.1
2017-Sep-16 14:30N 45°52' W 085°12'611.2
2017-Sep-16 14:00N 45°51' W 085°04'611.2
2017-Sep-16 13:30N 45°50' W 084°56'611.4
2017-Sep-16 13:00N 45°49' W 084°48'611.1
2017-Sep-16 12:30N 45°48' W 084°40'611.2
2017-Sep-16 12:00N 45°45' W 084°34'511.0
2017-Sep-16 11:30N 45°42' W 084°27'510.6
2017-Sep-16 11:00N 45°41' W 084°19'510.5
2017-Sep-16 10:29N 45°39' W 084°12'611.5
2017-Sep-16 10:00N 45°37' W 084°05'611.5
2017-Sep-16 09:30N 45°35' W 083°57'611.4
2017-Sep-16 09:00N 45°32' W 083°50'611.3
2017-Sep-16 08:30N 45°30' W 083°43'611.3
2017-Sep-16 08:00N 45°27' W 083°35'611.4
2017-Sep-16 07:30N 45°25' W 083°28'611.3
2017-Sep-16 07:00N 45°22' W 083°22'  

Dump ship's entire track history